Time;durP1;ratioP1;P1;durP2;ratioP2;P2;SDS_P1;SDS_P2;PMS_P1;PMS_P2;Temp;Humidity;BMP_temperature;BMP_pressure;BME280_temperature;BME280_humidity;BME280_pressure;Samples;Min_cycle;Max_cycle;Signal;HPM_P1;HPM_P2
2023/06/01 00:00:09;;;;;;;22.33;7.13;;;10.50;74.30;;;;;;6100768;23;20022;-90
2023/06/01 00:02:45;;;;;;;18.57;6.50;;;10.50;74.40;;;;;;6084608;23;20030;-90
2023/06/01 00:05:11;;;;;;;17.57;7.47;;;10.50;74.40;;;;;;6052613;23;20021;-90
2023/06/01 00:07:39;;;;;;;20.10;6.43;;;10.50;74.50;;;;;;6087655;23;20044;-90
2023/06/01 00:10:09;;;;;;;21.00;7.03;;;10.50;74.50;;;;;;6099954;23;20456;-91
2023/06/01 00:12:35;;;;;;;18.70;6.63;;;10.50;74.60;;;;;;6098599;23;20045;-90
2023/06/01 00:15:07;;;;;;;20.63;6.60;;;10.50;74.60;;;;;;6075748;23;20442;-90
2023/06/01 00:17:34;;;;;;;17.17;6.27;;;10.50;74.70;;;;;;6091672;23;20092;-90
2023/06/01 00:20:07;;;;;;;15.43;5.83;;;10.50;74.60;;;;;;6076119;23;20022;-89
2023/06/01 00:22:38;;;;;;;18.85;6.30;;;10.50;74.50;;;;;;6084482;23;20014;-89
2023/06/01 00:25:08;;;;;;;13.77;6.27;;;10.50;74.50;;;;;;6076742;23;20024;-90
2023/06/01 00:27:34;;;;;;;18.63;6.77;;;10.50;74.50;;;;;;6091172;23;20339;-91
2023/06/01 00:30:09;;;;;;;15.67;7.40;;;10.40;74.50;;;;;;6100183;23;20021;-90
2023/06/01 00:32:37;;;;;;;17.33;6.60;;;10.40;74.60;;;;;;6059198;23;20015;-91
2023/06/01 00:35:06;;;;;;;15.93;6.90;;;10.40;74.60;;;;;;6100413;23;20021;-91
2023/06/01 00:37:32;;;;;;;15.70;6.40;;;10.40;74.60;;;;;;6093564;23;20464;-92
2023/06/01 00:39:59;;;;;;;19.73;7.43;;;10.40;74.40;;;;;;6099364;23;20022;-89
2023/06/01 00:42:29;;;;;;;19.65;7.05;;;10.40;74.40;;;;;;6082997;23;20042;-92
2023/06/01 00:44:54;;;;;;;14.50;6.53;;;10.40;74.40;;;;;;6046093;23;20424;-89
2023/06/01 00:47:20;;;;;;;17.40;6.97;;;10.30;74.50;;;;;;6092628;23;20037;-90
2023/06/01 00:49:47;;;;;;;16.77;7.37;;;10.30;74.50;;;;;;6075385;23;20018;-90
2023/06/01 00:52:16;;;;;;;16.73;7.30;;;10.30;74.60;;;;;;6097565;23;20384;-89
2023/06/01 00:54:41;;;;;;;14.93;6.80;;;10.40;74.60;;;;;;6076078;23;20365;-89
2023/06/01 00:57:07;;;;;;;17.40;6.83;;;10.30;74.60;;;;;;6090322;23;20108;-90
2023/06/01 00:59:35;;;;;;;16.30;6.67;;;10.30;74.60;;;;;;6075280;23;20029;-90
2023/06/01 01:02:15;;;;;;;17.90;6.60;;;10.30;74.60;;;;;;6100390;23;20021;-91
2023/06/01 01:04:41;;;;;;;23.87;7.23;;;10.30;74.60;;;;;;6097788;23;20033;-91
2023/06/01 01:07:28;;;;;;;15.87;6.70;;;10.30;74.60;;;;;;6088311;23;20681;-91
2023/06/01 01:10:10;;;;;;;;;;;;;;;;;;;;;
2023/06/01 01:12:42;;;;;;;14.83;6.40;;;10.30;74.70;;;;;;6097377;23;20021;-90
2023/06/01 01:18:22;;;;;;;19.03;6.50;;;10.30;74.70;;;;;;6093184;23;20034;-91
2023/06/01 01:20:57;;;;;;;;;;;10.30;74.70;;;;;;6099730;23;20468;-90
2023/06/01 01:23:51;;;;;;;17.53;7.03;;;10.30;74.80;;;;;;6082086;23;20307;-91
2023/06/01 01:26:44;;;;;;;15.57;6.57;;;10.30;74.70;;;;;;6093060;23;20053;-94
2023/06/01 01:29:14;;;;;;;14.83;5.73;;;10.30;74.60;;;;;;6058039;23;20029;-90
2023/06/01 01:31:46;;;;;;;16.43;6.17;;;10.30;74.60;;;;;;6099369;23;20018;-90
2023/06/01 01:34:12;;;;;;;13.90;5.70;;;10.30;74.60;;;;;;6098063;23;20022;-91
2023/06/01 01:36:38;;;;;;;15.70;6.30;;;10.20;74.60;;;;;;6093010;23;20080;-90
2023/06/01 01:39:05;;;;;;;14.20;6.13;;;10.30;74.70;;;;;;6097983;23;20149;-89
2023/06/01 01:41:34;;;;;;;17.57;5.70;;;10.30;74.70;;;;;;6099355;23;20017;-90
2023/06/01 01:44:08;;;;;;;12.00;4.80;;;10.30;74.70;;;;;;6083355;23;20105;-92
2023/06/01 01:46:54;;;;;;;13.43;5.30;;;10.30;74.70;;;;;;6071075;23;20738;-92
2023/06/01 01:49:35;;;;;;;12.50;4.90;;;10.30;74.90;;;;;;6097306;23;20022;-90
2023/06/01 01:52:27;;;;;;;8.82;4.50;;;10.30;74.70;;;;;;6099318;23;20073;-90
2023/06/01 01:54:55;;;;;;;10.43;4.40;;;10.30;74.70;;;;;;6122564;23;20022;-91
2023/06/01 01:57:23;;;;;;;11.20;4.60;;;10.30;74.70;;;;;;6079189;23;20081;-90
2023/06/01 02:00:21;;;;;;;8.03;3.93;;;10.30;74.70;;;;;;6100182;23;20069;-92
2023/06/01 02:02:47;;;;;;;10.57;4.27;;;10.30;74.80;;;;;;6069243;23;20094;-91
2023/06/01 02:05:13;;;;;;;12.80;3.73;;;10.30;74.70;;;;;;6075323;23;20441;-90
2023/06/01 02:07:47;;;;;;;6.27;3.40;;;10.30;74.60;;;;;;6058153;23;20093;-90
2023/06/01 02:10:22;;;;;;;9.93;3.43;;;10.30;74.50;;;;;;6100661;23;20022;-90
2023/06/01 02:12:48;;;;;;;13.33;4.10;;;10.30;74.50;;;;;;6069900;23;20022;-90
2023/06/01 02:15:16;;;;;;;8.43;3.47;;;10.30;74.40;;;;;;6098546;23;20049;-90
2023/06/01 02:17:42;;;;;;;9.80;3.87;;;10.30;74.50;;;;;;6091451;23;20453;-89
2023/06/01 02:20:09;;;;;;;9.87;3.77;;;10.30;74.50;;;;;;6099816;23;20160;-90
2023/06/01 02:22:41;;;;;;;13.20;4.23;;;10.30;74.50;;;;;;6074681;23;20029;-91
2023/06/01 02:25:09;;;;;;;8.43;3.80;;;10.30;74.50;;;;;;6099781;23;20081;-90
2023/06/01 02:27:38;;;;;;;12.53;4.20;;;10.30;74.50;;;;;;6086881;23;20018;-90
2023/06/01 02:30:13;;;;;;;15.23;4.63;;;10.30;74.50;;;;;;6052409;23;20022;-91
2023/06/01 02:32:45;;;;;;;13.47;4.73;;;10.30;74.40;;;;;;6098525;23;20018;-91
2023/06/01 02:35:11;;;;;;;11.47;4.70;;;10.30;74.50;;;;;;6101883;23;20018;-90
2023/06/01 02:37:36;;;;;;;12.73;5.00;;;10.30;74.50;;;;;;6095146;23;20076;-88
2023/06/01 02:40:10;;;;;;;13.10;4.73;;;10.30;74.50;;;;;;6102913;23;20022;-90
2023/06/01 02:42:38;;;;;;;8.00;4.53;;;10.30;74.40;;;;;;6090126;23;20037;-90
2023/06/01 02:45:06;;;;;;;12.63;4.70;;;10.30;74.40;;;;;;6102444;23;20022;-92
2023/06/01 02:47:31;;;;;;;10.23;4.70;;;10.30;74.40;;;;;;6054711;23;20018;-92
2023/06/01 02:49:57;;;;;;;15.17;5.07;;;10.40;74.50;;;;;;6100556;23;20117;-91
2023/06/01 02:52:23;;;;;;;12.43;4.50;;;10.30;74.50;;;;;;6074974;23;20493;-88
2023/06/01 02:54:57;;;;;;;14.07;4.70;;;10.40;74.40;;;;;;6076883;23;20022;-90
2023/06/01 02:57:25;;;;;;;14.03;4.63;;;10.40;74.50;;;;;;6076365;23;20035;-90
2023/06/01 02:59:54;;;;;;;11.73;4.63;;;10.40;74.50;;;;;;6052635;23;20038;-89
2023/06/01 03:02:20;;;;;;;12.00;4.47;;;10.40;74.50;;;;;;6100533;23;20018;-88
2023/06/01 03:04:46;;;;;;;11.07;4.60;;;10.40;74.50;;;;;;6077197;23;20029;-89
2023/06/01 03:07:12;;;;;;;21.03;5.83;;;10.40;74.50;;;;;;6092567;23;20075;-90
2023/06/01 03:09:47;;;;;;;17.20;6.00;;;10.30;74.50;;;;;;6100914;23;20018;-91
2023/06/01 03:12:13;;;;;;;12.13;5.70;;;10.30;74.50;;;;;;6098291;23;20041;-89
2023/06/01 03:14:38;;;;;;;11.87;5.03;;;10.40;74.50;;;;;;6101240;23;20022;-89
2023/06/01 03:17:05;;;;;;;16.03;5.53;;;10.30;74.50;;;;;;6081933;23;20687;-89
2023/06/01 03:19:31;;;;;;;15.33;6.30;;;10.40;74.50;;;;;;6028193;23;20021;-90
2023/06/01 03:21:59;;;;;;;16.08;6.03;;;10.40;74.60;;;;;;6100698;23;20029;-89
2023/06/01 03:24:28;;;;;;;15.67;6.50;;;10.40;74.60;;;;;;6061481;23;20413;-89
2023/06/01 03:26:55;;;;;;;17.33;6.23;;;10.40;74.60;;;;;;6094370;23;20014;-90
2023/06/01 03:29:21;;;;;;;14.17;5.77;;;10.40;74.70;;;;;;6060080;23;20111;-90
2023/06/01 03:31:47;;;;;;;18.87;6.47;;;10.40;74.70;;;;;;6100393;23;20022;-91
2023/06/01 03:34:16;;;;;;;16.13;6.00;;;10.40;74.70;;;;;;6099037;23;20076;-91
2023/06/01 03:36:42;;;;;;;16.67;6.30;;;10.40;74.70;;;;;;6095953;23;20025;-90
2023/06/01 03:39:08;;;;;;;15.10;5.43;;;10.40;74.70;;;;;;6099396;23;20018;-90
2023/06/01 03:41:36;;;;;;;24.00;5.93;;;10.40;74.70;;;;;;6099984;23;20029;-91
2023/06/01 03:44:11;;;;;;;19.43;5.50;;;10.40;74.70;;;;;;6075040;23;20345;-92
2023/06/01 03:46:37;;;;;;;17.83;5.78;;;10.40;74.80;;;;;;6093145;23;20010;-91
2023/06/01 03:49:18;;;;;;;12.40;5.30;;;10.40;74.90;;;;;;6096903;23;20113;-91
2023/06/01 03:55:39;;;;;;;12.25;6.10;;;10.40;74.80;;;;;;6037150;23;20021;-94
2023/06/01 03:58:29;;;;;;;13.87;5.53;;;10.40;74.80;;;;;;6083602;23;20038;-93
2023/06/01 04:01:11;;;;;;;13.98;5.45;;;10.40;74.80;;;;;;6125305;23;20401;-90
2023/06/01 04:03:50;;;;;;;9.80;5.03;;;10.40;74.70;;;;;;6074284;23;20093;-91
2023/06/01 04:06:17;;;;;;;15.88;5.30;;;10.40;74.70;;;;;;6075795;23;20025;-92
2023/06/01 04:08:48;;;;;;;15.83;6.13;;;10.40;74.70;;;;;;6094814;23;20022;-90
2023/06/01 04:11:15;;;;;;;15.23;6.32;;;10.40;74.60;;;;;;6097230;23;20022;-90
2023/06/01 04:13:42;;;;;;;16.88;6.90;;;10.40;74.60;;;;;;6098567;23;20073;-90
2023/06/01 04:16:08;;;;;;;18.33;6.77;;;10.40;74.70;;;;;;6100554;23;20448;-92
2023/06/01 04:18:33;;;;;;;14.20;6.07;;;10.40;74.70;;;;;;6067294;23;20025;-90
2023/06/01 04:20:59;;;;;;;17.85;6.35;;;10.40;74.70;;;;;;6052379;23;20072;-92
2023/06/01 04:23:28;;;;;;;19.80;6.77;;;10.40;74.70;;;;;;6097918;23;20100;-92
2023/06/01 04:25:58;;;;;;;18.43;6.67;;;10.40;74.80;;;;;;6098198;23;20468;-89
2023/06/01 04:28:24;;;;;;;12.60;6.15;;;10.40;74.80;;;;;;6049518;23;20026;-91
2023/06/01 04:30:53;;;;;;;14.37;6.87;;;10.40;74.70;;;;;;6050122;23;20028;-91
2023/06/01 04:33:18;;;;;;;15.15;5.25;;;10.40;74.80;;;;;;6066955;23;20025;-91
2023/06/01 04:35:44;;;;;;;14.80;5.80;;;10.40;74.90;;;;;;6051546;23;20092;-91
2023/06/01 04:38:11;;;;;;;13.13;5.33;;;10.40;74.80;;;;;;6089185;23;20029;-90
2023/06/01 04:40:40;;;;;;;15.35;6.03;;;10.40;74.80;;;;;;6098806;23;20025;-90
2023/06/01 04:43:07;;;;;;;16.37;5.50;;;10.40;74.80;;;;;;6073456;23;20050;-90
2023/06/01 04:45:40;;;;;;;16.45;5.65;;;10.40;74.80;;;;;;6099813;23;20018;-92
2023/06/01 04:48:08;;;;;;;11.73;4.83;;;10.40;74.90;;;;;;6073406;23;20055;-90
2023/06/01 04:50:37;;;;;;;11.90;4.90;;;10.40;74.90;;;;;;6043077;23;20093;-93
2023/06/01 04:53:10;;;;;;;10.17;4.30;;;10.40;74.80;;;;;;6097183;23;20018;-90
2023/06/01 04:55:44;;;;;;;12.47;4.37;;;10.40;74.90;;;;;;6099342;23;20092;-92
2023/06/01 04:58:12;;;;;;;8.67;4.37;;;10.40;74.90;;;;;;6067711;23;20052;-91
2023/06/01 05:00:39;;;;;;;11.97;4.80;;;10.40;74.90;;;;;;6098936;23;20021;-89
2023/06/01 05:03:05;;;;;;;10.07;4.70;;;10.40;75.00;;;;;;6050106;23;20109;-91
2023/06/01 05:05:31;;;;;;;11.73;5.73;;;10.40;75.10;;;;;;6100207;23;20018;-90
2023/06/01 05:08:02;;;;;;;17.70;6.38;;;10.40;75.10;;;;;;6091302;23;20056;-91
2023/06/01 05:10:29;;;;;;;;;;;10.40;75.20;;;;;;6100015;23;20333;-90
2023/06/01 05:12:55;;;;;;;11.10;5.20;;;10.40;75.30;;;;;;6098110;23;19932;-90
2023/06/01 05:15:21;;;;;;;13.77;5.43;;;10.40;75.20;;;;;;6098208;23;20018;-91
2023/06/01 05:17:47;;;;;;;10.55;5.72;;;10.50;75.20;;;;;;6079693;23;20024;-91
2023/06/01 05:20:15;;;;;;;12.65;5.38;;;10.50;75.20;;;;;;6098122;23;20364;-90
2023/06/01 05:22:47;;;;;;;18.58;6.53;;;10.50;75.30;;;;;;6071647;23;20022;-88
2023/06/01 05:25:22;;;;;;;15.18;5.97;;;10.50;75.40;;;;;;6122144;23;20021;-94
2023/06/01 05:27:48;;;;;;;13.85;6.07;;;10.60;75.50;;;;;;6090723;23;20368;-90
2023/06/01 05:30:17;;;;;;;15.98;5.90;;;10.50;75.40;;;;;;6075312;23;20042;-90
2023/06/01 05:32:43;;;;;;;13.25;5.85;;;10.60;75.60;;;;;;6071337;23;20026;-91
2023/06/01 05:35:12;;;;;;;12.20;5.68;;;10.50;75.60;;;;;;6098472;23;20079;-92
2023/06/01 05:37:37;;;;;;;13.60;4.75;;;10.60;75.70;;;;;;6073092;23;20045;-92
2023/06/01 05:40:08;;;;;;;13.98;5.15;;;10.50;75.60;;;;;;6098083;23;20054;-93
2023/06/01 05:42:34;;;;;;;9.18;4.43;;;10.50;75.70;;;;;;6080667;23;20026;-93
2023/06/01 05:45:02;;;;;;;15.23;4.93;;;10.60;75.70;;;;;;6098622;23;20072;-91
2023/06/01 05:47:28;;;;;;;13.30;4.95;;;10.60;75.60;;;;;;6087264;23;20025;-91
2023/06/01 05:49:54;;;;;;;11.93;4.85;;;10.60;75.60;;;;;;6097605;23;20088;-89
2023/06/01 05:52:45;;;;;;;10.35;4.55;;;10.60;75.60;;;;;;6095448;23;20024;-92
2023/06/01 05:55:11;;;;;;;11.93;5.30;;;10.60;75.50;;;;;;6098071;23;20018;-91
2023/06/01 05:57:36;;;;;;;10.90;4.53;;;10.70;75.60;;;;;;6086855;23;20326;-90
2023/06/01 06:00:09;;;;;;;13.10;5.03;;;10.70;75.60;;;;;;6096774;23;20100;-90
2023/06/01 06:02:38;;;;;;;12.15;4.20;;;10.70;75.60;;;;;;6053260;23;20045;-91
2023/06/01 06:05:08;;;;;;;8.20;4.07;;;10.80;75.60;;;;;;6073584;23;20388;-91
2023/06/01 06:07:37;;;;;;;9.07;3.80;;;10.80;75.50;;;;;;6090280;23;20519;-90
2023/06/01 06:10:07;;;;;;;8.57;3.63;;;10.80;75.50;;;;;;6099103;23;20071;-91
2023/06/01 06:12:41;;;;;;;8.63;3.50;;;10.90;75.50;;;;;;6086080;23;20037;-91
2023/06/01 06:15:08;;;;;;;7.13;3.75;;;10.90;75.50;;;;;;6100220;23;20024;-91
2023/06/01 06:17:42;;;;;;;10.10;3.92;;;10.90;75.40;;;;;;6092355;23;20014;-91
2023/06/01 06:20:10;;;;;;;9.45;3.70;;;10.90;75.40;;;;;;6101841;23;20101;-91
2023/06/01 06:22:36;;;;;;;10.60;3.60;;;10.90;75.40;;;;;;6074998;23;20076;-91
2023/06/01 06:25:14;;;;;;;;;;;;;;;;;;;;;
2023/06/01 06:27:41;;;;;;;8.77;3.05;;;10.90;75.50;;;;;;6094327;23;20029;-90
2023/06/01 06:30:10;;;;;;;4.43;1.95;;;10.90;75.60;;;;;;6101584;23;20018;-89
2023/06/01 06:32:36;;;;;;;9.23;2.55;;;10.90;75.60;;;;;;6100240;23;20137;-93
2023/06/01 06:35:05;;;;;;;4.57;2.45;;;10.90;75.50;;;;;;6077929;23;20045;-94
2023/06/01 06:37:34;;;;;;;6.53;2.30;;;10.90;75.50;;;;;;6094786;23;20029;-91
2023/06/01 06:40:00;;;;;;;4.75;1.65;;;10.90;75.50;;;;;;6101500;23;20021;-91
2023/06/01 06:42:26;;;;;;;12.23;2.05;;;10.90;75.70;;;;;;6037209;23;20338;-91
2023/06/01 06:44:57;;;;;;;8.00;2.37;;;10.90;75.80;;;;;;6100712;23;20045;-90
2023/06/01 06:47:24;;;;;;;9.85;2.97;;;11.00;75.70;;;;;;6070513;23;20037;-89
2023/06/01 06:49:51;;;;;;;6.13;2.65;;;11.00;75.70;;;;;;6077823;23;20046;-90
2023/06/01 06:52:22;;;;;;;3.88;2.30;;;11.00;75.80;;;;;;6086300;23;20056;-92
2023/06/01 06:54:48;;;;;;;9.32;2.60;;;11.00;75.70;;;;;;6102001;23;20081;-92
2023/06/01 06:57:16;;;;;;;7.03;2.28;;;11.00;75.70;;;;;;6094874;23;20025;-92
2023/06/01 06:59:42;;;;;;;4.90;2.00;;;11.10;75.90;;;;;;6100218;23;20028;-90
2023/06/01 07:02:11;;;;;;;10.18;2.33;;;11.10;75.90;;;;;;6084056;23;20050;-91
2023/06/01 07:04:46;;;;;;;5.35;2.30;;;11.10;76.00;;;;;;6098000;23;20033;-92
2023/06/01 07:07:30;;;;;;;10.30;2.70;;;11.10;76.00;;;;;;6056027;23;20345;-91
2023/06/01 07:09:56;;;;;;;8.27;2.60;;;11.10;76.10;;;;;;6101039;23;20025;-90
2023/06/01 07:13:17;;;;;;;8.10;2.60;;;11.10;76.10;;;;;;6103457;23;20017;-92
2023/06/01 07:15:43;;;;;;;7.63;2.80;;;11.10;76.50;;;;;;6085126;23;20046;-91
2023/06/01 07:18:27;;;;;;;10.75;3.25;;;11.10;76.40;;;;;;6051572;23;20092;-94
2023/06/01 07:20:57;;;;;;;6.95;2.72;;;11.10;76.40;;;;;;6065238;23;20909;-92
2023/06/01 07:23:49;;;;;;;5.07;2.42;;;11.10;76.30;;;;;;6082518;23;20014;-92
2023/06/01 07:26:12;;;;;;;7.40;2.80;;;11.10;76.40;;;;;;6082126;23;20025;-92
2023/06/01 07:28:47;;;;;;;9.63;2.63;;;11.10;76.30;;;;;;6073877;23;20182;-95
2023/06/01 07:31:13;;;;;;;7.18;2.55;;;11.10;76.30;;;;;;6081028;23;20750;-92
2023/06/01 07:33:42;;;;;;;10.07;3.47;;;11.10;76.20;;;;;;6043345;23;20125;-95
2023/06/01 07:36:11;;;;;;;9.98;3.05;;;11.10;76.40;;;;;;6078091;23;20018;-94
2023/06/01 07:38:38;;;;;;;8.25;2.60;;;11.10;76.50;;;;;;6079183;23;20025;-93
2023/06/01 07:41:10;;;;;;;8.32;2.70;;;11.10;76.50;;;;;;6055674;23;20457;-92
2023/06/01 07:43:51;;;;;;;6.88;2.30;;;11.10;76.60;;;;;;6056713;23;20022;-94
2023/06/01 07:46:16;;;;;;;;;;;11.10;76.90;;;;;;6077366;23;20022;-93
2023/06/01 07:48:45;;;;;;;5.22;2.00;;;11.10;77.40;;;;;;6049832;23;19924;-92
2023/06/01 07:51:11;;;;;;;5.18;1.90;;;11.20;77.10;;;;;;6081369;23;20025;-91
2023/06/01 07:53:40;;;;;;;6.05;1.77;;;11.20;77.20;;;;;;6056129;23;20018;-94
2023/06/01 07:56:06;;;;;;;8.32;2.50;;;11.20;77.20;;;;;;6078711;23;20018;-92
2023/06/01 07:58:41;;;;;;;7.68;2.47;;;11.20;77.30;;;;;;6071934;23;20045;-91
2023/06/01 08:01:10;;;;;;;7.68;3.28;;;11.20;77.40;;;;;;6035940;23;20030;-95
2023/06/01 08:03:42;;;;;;;10.37;4.00;;;11.20;77.20;;;;;;6000545;23;20089;-94
2023/06/01 08:06:11;;;;;;;9.33;3.17;;;11.20;77.20;;;;;;6061060;23;20029;-93
2023/06/01 08:08:37;;;;;;;10.23;3.72;;;11.20;77.10;;;;;;6047615;23;20022;-92
2023/06/01 08:11:03;;;;;;;7.85;3.60;;;11.20;77.10;;;;;;6054172;23;20022;-91
2023/06/01 08:13:29;;;;;;;12.95;3.97;;;11.20;77.10;;;;;;6033616;23;20033;-90
2023/06/01 08:16:28;;;;;;;9.63;4.30;;;11.20;77.00;;;;;;6056504;23;20026;-95
2023/06/01 08:18:57;;;;;;;;;;;11.20;76.90;;;;;;5965196;23;20836;-93
2023/06/01 08:22:19;;;;;;;17.92;5.32;;;11.10;76.60;;;;;;5993463;23;20781;-94
2023/06/01 08:26:02;;;;;;;;;;;;;;;;;;;;;
2023/06/01 08:29:31;;;;;;;;;;;;;;;;;;;;;
2023/06/01 08:33:33;;;;;;;;;;;;;;;;;;;;;
2023/06/01 08:44:41;;;;;;;10.82;3.25;;;11.30;75.60;;;;;;5746347;24;20183;-93
2023/06/01 08:47:52;;;;;;;9.13;3.25;;;11.30;75.20;;;;;;5712975;24;20527;-96
2023/06/01 09:00:53;;;;;;;11.20;3.65;;;11.50;74.00;;;;;;5752837;24;20016;-94
2023/06/01 09:38:38;;;;;;;10.60;3.28;;;11.60;73.90;;;;;;5857243;22;7658622;-91
2023/06/01 09:41:21;;;;;;;13.50;3.25;;;11.70;73.30;;;;;;6097716;23;20052;-94
2023/06/01 09:48:35;;;;;;;;;;;;;;;;;;;;;
2023/06/01 09:55:23;;;;;;;14.18;3.28;;;11.90;72.50;;;;;;6171512;23;20013;-96
2023/06/01 10:02:09;;;;;;;11.10;2.80;;;11.90;72.00;;;;;;6089447;23;20103;-96
2023/06/01 10:04:41;;;;;;;10.57;3.13;;;11.90;71.70;;;;;;6116977;22;20048;-92
2023/06/01 10:07:31;;;;;;;10.13;2.50;;;12.00;72.20;;;;;;6125615;22;20020;-95
2023/06/01 10:10:31;;;;;;;;;;;;;;;;;;;;;
2023/06/01 10:24:10;;;;;;;10.80;3.17;;;12.10;71.20;;;;;;5957197;23;20035;-93
2023/06/01 10:27:17;;;;;;;16.77;3.65;;;12.10;71.50;;;;;;5940591;23;20016;-95
2023/06/01 10:34:23;;;;;;;11.63;3.80;;;12.10;71.10;;;;;;6055768;23;20041;-94
2023/06/01 10:41:28;;;;;;;;;;;;;;;;;;;;;
2023/06/01 10:52:51;;;;;;;10.88;3.10;;;12.20;70.80;;;;;;6011685;23;20022;-95
2023/06/01 10:55:29;;;;;;;10.60;2.95;;;12.20;70.70;;;;;;5961715;23;20020;-94
2023/06/01 11:09:51;;;;;;;10.30;2.97;;;12.50;70.30;;;;;;6004987;23;20035;-96
2023/06/01 11:13:11;;;;;;;;;;;;;;;;;;;;;
2023/06/01 11:31:51;;;;;;;;;;;;;;;;;;;;;
2023/06/01 11:34:55;;;;;;;11.68;3.80;;;12.60;70.40;;;;;;6113239;23;20024;-96
2023/06/01 11:37:21;;;;;;;8.90;3.45;;;12.60;70.30;;;;;;6030852;23;20466;-95
2023/06/01 11:40:37;;;;;;;10.38;2.65;;;12.60;70.30;;;;;;6036547;23;20144;-96
2023/06/01 11:47:34;;;;;;;11.73;2.75;;;12.70;70.00;;;;;;5889851;24;20022;-96
2023/06/01 11:50:27;;;;;;;9.32;3.17;;;12.70;70.10;;;;;;5898141;24;20440;-96
2023/06/01 11:57:08;;;;;;;;;;;;;;;;;;;;;
2023/06/01 12:00:57;;;;;;;14.18;3.85;;;12.70;70.20;;;;;;5927327;24;20128;-96
2023/06/01 12:03:46;;;;;;;23.63;5.88;;;12.60;70.10;;;;;;5937153;23;20025;-96
2023/06/01 12:06:22;;;;;;;16.08;5.03;;;12.50;70.50;;;;;;5943590;24;20023;-94
2023/06/01 12:09:09;;;;;;;9.73;3.95;;;12.50;70.50;;;;;;5919718;24;20480;-96
2023/06/01 12:12:02;;;;;;;12.93;3.53;;;12.50;70.50;;;;;;5918514;24;20017;-96
2023/06/01 12:15:14;;;;;;;5.88;3.13;;;12.50;70.60;;;;;;5862860;24;20032;-96
2023/06/01 12:18:37;;;;;;;;;;;;;;;;;;;;;
2023/06/01 12:21:14;;;;;;;6.63;2.72;;;12.50;70.70;;;;;;5888372;24;20021;-96
2023/06/01 12:36:19;;;;;;;10.57;2.90;;;12.50;70.80;;;;;;5861366;24;20053;-96
2023/06/01 12:42:00;;;;;;;10.57;3.63;;;12.50;71.00;;;;;;5805672;24;20895;-95
2023/06/01 12:44:32;;;;;;;8.43;3.42;;;12.50;71.30;;;;;;5749982;24;20022;-96
2023/06/01 12:55:22;;;;;;;13.68;4.25;;;12.50;71.80;;;;;;5818387;24;20092;-96
2023/06/01 12:59:01;;;;;;;10.77;3.88;;;12.50;71.70;;;;;;5785878;24;20018;-95
2023/06/01 13:01:27;;;;;;;10.85;3.83;;;12.50;71.30;;;;;;5912678;24;20035;-96
2023/06/01 13:04:15;;;;;;;13.63;3.80;;;12.50;71.20;;;;;;5850040;24;20028;-96
2023/06/01 13:11:14;;;;;;;10.82;4.03;;;12.30;71.00;;;;;;5936581;24;20028;-96
2023/06/01 13:13:48;;;;;;;13.70;3.60;;;12.40;70.70;;;;;;6031688;23;20053;-96
2023/06/01 13:24:35;;;;;;;9.98;3.33;;;12.60;70.40;;;;;;6176275;23;20031;-96
2023/06/01 13:27:27;;;;;;;12.70;4.70;;;12.70;69.90;;;;;;6106784;23;20044;-94
2023/06/01 13:30:33;;;;;;;12.30;4.68;;;12.80;69.60;;;;;;6126856;23;20013;-96
2023/06/01 13:33:34;;;;;;;13.50;4.40;;;12.70;69.70;;;;;;6111671;23;20022;-96
2023/06/01 13:36:54;;;;;;;13.88;4.30;;;12.80;70.00;;;;;;6211224;22;20011;-96
2023/06/01 13:46:04;;;;;;;6.93;3.75;;;12.90;69.50;;;;;;6241268;22;20847;-96
2023/06/01 13:48:30;;;;;;;13.48;4.15;;;12.90;69.80;;;;;;6234755;22;20019;-95
2023/06/01 13:51:41;;;;;;;;;;;;;;;;;;;;;
2023/06/01 13:55:21;;;;;;;12.05;3.30;;;12.70;69.90;;;;;;6291045;22;20349;-95
2023/06/01 13:58:17;;;;;;;10.55;2.60;;;12.70;70.20;;;;;;6191046;23;20071;-94
2023/06/01 14:01:04;;;;;;;11.55;3.53;;;12.70;70.40;;;;;;6171170;23;20107;-95
2023/06/01 14:03:30;;;;;;;9.85;3.03;;;12.70;70.50;;;;;;6150650;23;20100;-94
2023/06/01 14:06:49;;;;;;;8.18;2.83;;;12.70;70.50;;;;;;6187242;23;20454;-94
2023/06/01 14:09:39;;;;;;;12.45;2.95;;;12.70;70.30;;;;;;6041267;23;20037;-96
2023/06/01 14:12:13;;;;;;;12.77;3.10;;;12.70;70.40;;;;;;6146747;23;20013;-96
2023/06/01 14:15:08;;;;;;;7.63;3.17;;;12.60;70.40;;;;;;6117473;23;20032;-94
2023/06/01 14:17:37;;;;;;;11.38;3.45;;;12.50;70.50;;;;;;6104978;23;20060;-93
2023/06/01 14:23:47;;;;;;;12.70;3.10;;;12.50;70.80;;;;;;6053088;23;20173;-94
2023/06/01 14:26:37;;;;;;;;;;;;;;;;;;;;;
2023/06/01 14:29:10;;;;;;;10.63;3.63;;;12.30;71.20;;;;;;6166365;23;20568;-96
2023/06/01 14:31:46;;;;;;;;;;;;;;;;;;;;;
2023/06/01 14:34:39;;;;;;;13.23;4.00;;;12.20;71.30;;;;;;6198073;22;20031;-96
2023/06/01 14:37:14;;;;;;;5.90;3.17;;;12.20;71.40;;;;;;6152829;22;20421;-96
2023/06/01 14:40:48;;;;;;;3.80;2.08;;;12.30;71.10;;;;;;6184753;22;20023;-96
2023/06/01 14:43:55;;;;;;;10.75;3.03;;;12.30;70.50;;;;;;6075721;23;20018;-96
2023/06/01 14:50:49;;;;;;;6.43;1.83;;;12.50;70.30;;;;;;6031123;23;20019;-95
2023/06/01 14:53:52;;;;;;;4.50;2.10;;;12.50;70.30;;;;;;5927666;23;20020;-96
2023/06/01 14:56:39;;;;;;;8.90;2.25;;;12.50;69.80;;;;;;5892842;24;20060;-96
2023/06/01 14:59:36;;;;;;;;;;;;;;;;;;;;;
2023/06/01 15:02:57;;;;;;;5.18;1.85;;;12.70;69.70;;;;;;6032224;23;20026;-96
2023/06/01 15:09:04;;;;;;;6.28;1.52;;;12.70;69.50;;;;;;5973911;23;20023;-94
2023/06/01 15:11:56;;;;;;;6.88;1.80;;;12.70;69.60;;;;;;6001721;23;20019;-95
2023/06/01 15:14:25;;;;;;;6.55;2.10;;;12.60;69.80;;;;;;5939332;23;20150;-95
2023/06/01 15:16:54;;;;;;;4.50;1.42;;;12.50;69.80;;;;;;6031391;23;20784;-94
2023/06/01 15:22:28;;;;;;;6.60;1.60;;;12.50;69.60;;;;;;6112234;23;20028;-96
2023/06/01 15:25:15;;;;;;;3.65;1.20;;;12.50;69.80;;;;;;6115639;22;20031;-95
2023/06/01 15:27:47;;;;;;;6.05;1.25;;;12.50;69.30;;;;;;6179467;22;20020;-95
2023/06/01 15:30:36;;;;;;;4.90;1.55;;;12.50;69.40;;;;;;6213136;22;20019;-96
2023/06/01 15:33:03;;;;;;;5.07;1.50;;;12.50;69.50;;;;;;6218813;22;20015;-94
2023/06/01 15:35:53;;;;;;;6.72;1.60;;;12.60;69.30;;;;;;6221445;22;20054;-94
2023/06/01 15:38:25;;;;;;;4.13;1.42;;;12.60;68.70;;;;;;6210146;22;20069;-96
2023/06/01 15:40:57;;;;;;;9.25;1.63;;;12.50;68.80;;;;;;6213048;22;20016;-95
2023/06/01 15:46:51;;;;;;;7.03;1.63;;;12.50;68.90;;;;;;6198594;23;20012;-92
2023/06/01 15:50:01;;;;;;;6.78;1.70;;;12.50;69.20;;;;;;6116853;23;20025;-95
2023/06/01 15:52:33;;;;;;;14.68;2.20;;;12.50;69.00;;;;;;6109447;23;20018;-93
2023/06/01 15:55:40;;;;;;;10.45;2.20;;;12.50;69.20;;;;;;6140250;23;20070;-95
2023/06/01 15:58:12;;;;;;;9.63;1.85;;;12.50;69.20;;;;;;6152584;23;20434;-92
2023/06/01 16:00:41;;;;;;;9.80;2.08;;;12.50;69.10;;;;;;6161067;23;20021;-91
2023/06/01 16:03:34;;;;;;;9.30;2.30;;;12.30;69.10;;;;;;6124681;23;20031;-94
2023/06/01 16:06:03;;;;;;;8.32;2.05;;;12.30;68.80;;;;;;6155560;23;20454;-91
2023/06/01 16:08:31;;;;;;;13.30;2.78;;;12.30;69.10;;;;;;6132013;23;20359;-94
2023/06/01 16:11:00;;;;;;;10.70;2.28;;;12.30;69.00;;;;;;6135268;23;20017;-93
2023/06/01 16:13:42;;;;;;;12.30;2.53;;;12.20;68.80;;;;;;6136549;23;20035;-91
2023/06/01 16:16:08;;;;;;;10.15;1.98;;;12.20;68.70;;;;;;6142248;23;20019;-92
2023/06/01 16:18:34;;;;;;;11.15;2.47;;;12.20;68.70;;;;;;6211018;22;20020;-93
2023/06/01 16:21:16;;;;;;;10.23;2.22;;;12.20;68.90;;;;;;6223698;22;20058;-94
2023/06/01 16:23:42;;;;;;;;;;;12.20;68.90;;;;;;6216257;23;20084;-94
2023/06/01 16:26:10;;;;;;;11.25;2.50;;;12.20;68.80;;;;;;6164630;23;19928;-94
2023/06/01 16:28:51;;;;;;;8.50;2.60;;;12.20;69.00;;;;;;6134455;23;20489;-94
2023/06/01 16:31:22;;;;;;;14.50;2.70;;;12.20;68.80;;;;;;6170905;22;20469;-96
2023/06/01 16:33:57;;;;;;;12.13;2.50;;;12.20;68.90;;;;;;6248660;22;20043;-93
2023/06/01 16:36:28;;;;;;;11.75;2.58;;;12.10;69.00;;;;;;6221717;22;20012;-93
2023/06/01 16:38:54;;;;;;;8.35;2.42;;;12.10;69.10;;;;;;6221614;22;20020;-90
2023/06/01 16:41:23;;;;;;;12.65;2.38;;;12.00;68.90;;;;;;6224308;22;20019;-92
2023/06/01 16:43:49;;;;;;;12.95;2.90;;;12.00;68.80;;;;;;6218748;22;20019;-91
2023/06/01 16:46:15;;;;;;;11.65;2.67;;;12.00;68.80;;;;;;6214356;22;20023;-94
2023/06/01 16:48:47;;;;;;;12.43;2.55;;;12.00;68.70;;;;;;6246850;22;20027;-91
2023/06/01 16:51:13;;;;;;;12.18;2.75;;;11.90;68.60;;;;;;6226450;22;20031;-93
2023/06/01 16:53:53;;;;;;;12.63;2.80;;;11.90;68.60;;;;;;6231736;22;20099;-96
2023/06/01 16:56:32;;;;;;;;;;;;;;;;;;;;;
2023/06/01 16:59:09;;;;;;;13.13;3.42;;;11.90;69.00;;;;;;6264588;22;20027;-93
2023/06/01 17:01:45;;;;;;;9.05;3.05;;;11.80;69.10;;;;;;6279488;22;20051;-94
2023/06/01 17:04:11;;;;;;;13.50;2.70;;;11.70;69.30;;;;;;6252082;22;20494;-94
2023/06/01 17:06:55;;;;;;;12.60;3.58;;;11.70;69.30;;;;;;6249427;22;20050;-96